Em1003 — WDI9476 — position and weather

sailwx.info

Track history (hours):
 
Tides and Currents Weather Stations Pressure Air Temp Water Temp Dewpoint Dewpoint Depression Visibility Wind Speed Wind Dir Waves Ship Positions

Em1003

Owner: Dutra Group, San Rafael, CA. More information available from US FCC via Universal Licensing System and Coast Guard Vessel Documentation Center.

Last reported at 2017-Oct-21 19:53 UTC. Time now 2017-Oct-22 12:13 UTC.
Position N 37°49' W 122°18'.

; draft 7 m.

MMSI: 367748970.

Date/timePositionNaut miles runAvg speedWind from/ knotsBaromVisibWave heightAir tempDewpointWater temp
2017-Oct-21 19:53N 37°49' W 122°18'2 5.3
2017-Oct-21 19:30N 37°49' W 122°21'4 8.3
2017-Oct-21 19:00N 37°52' W 122°24'3 5.1
2017-Oct-21 18:30N 37°54' W 122°23'1 1.3
2017-Oct-21 18:00N 37°54' W 122°22'0 0.0
2017-Oct-21 17:30N 37°54' W 122°22'0 0.0
2017-Oct-21 17:00N 37°54' W 122°22'0 0.0
2017-Oct-21 16:30N 37°54' W 122°22'0 0.0
2017-Oct-21 16:00N 37°54' W 122°22'0 0.0
2017-Oct-21 15:30N 37°54' W 122°22'0 0.0
2017-Oct-21 15:00N 37°54' W 122°22'1 1.2
2017-Oct-21 14:30N 37°54' W 122°23'6 5.8
2017-Oct-21 13:30N 37°49' W 122°21'1 2.0
2017-Oct-21 13:00N 37°49' W 122°20'1 0.1
2017-Oct-20 17:30N 37°49' W 122°19'0 0.0
2017-Oct-20 17:00N 37°49' W 122°19'0 0.0
2017-Oct-20 16:30N 37°49' W 122°19'0 0.0
2017-Oct-20 14:08N 37°49' W 122°19'0 0.0
2017-Oct-20 12:49N 37°49' W 122°19'0 0.0
2017-Oct-20 09:28N 37°49' W 122°18'0 0.3
2017-Oct-20 09:00N 37°49' W 122°19'1 2.0
2017-Oct-20 08:30N 37°49' W 122°20'0 0.2
2017-Oct-20 08:01N 37°49' W 122°20'0 0.1
2017-Oct-20 07:30N 37°49' W 122°20'0 0.2
2017-Oct-20 07:01N 37°49' W 122°20'0 0.0
2017-Oct-20 06:30N 37°49' W 122°20'0 0.3
2017-Oct-20 06:00N 37°49' W 122°20'1 1.1
2017-Oct-20 05:30N 37°49' W 122°19'0 0.9
2017-Oct-20 05:00N 37°49' W 122°20'0 0.1
2017-Oct-20 04:02N 37°49' W 122°20'0 0.0
2017-Oct-20 04:00N 37°49' W 122°20'0 0.1
2017-Oct-20 03:30N 37°49' W 122°20'0 0.0
2017-Oct-20 03:00N 37°49' W 122°20'0 0.0
2017-Oct-20 02:30N 37°49' W 122°20'0 0.0
2017-Oct-20 02:00N 37°49' W 122°20'0 0.3
2017-Oct-20 01:30N 37°49' W 122°20'0 0.0
2017-Oct-20 01:00N 37°49' W 122°20'1 1.7
2017-Oct-20 00:30N 37°49' W 122°19'1 1.6
2017-Oct-20 00:00N 37°49' W 122°20'0 0.3
2017-Oct-19 23:30N 37°49' W 122°20'0 0.0
2017-Oct-19 22:02N 37°49' W 122°20'0 0.2
2017-Oct-19 22:00N 37°49' W 122°20'0 0.6
2017-Oct-19 21:30N 37°49' W 122°20'0 0.6
2017-Oct-19 21:01N 37°49' W 122°20'0 0.0
2017-Oct-19 19:49N 37°49' W 122°20'0 0.0
2017-Oct-19 19:30N 37°49' W 122°20'0 0.0
2017-Oct-19 17:36N 37°49' W 122°20'0 2.1
2017-Oct-19 17:30N 37°49' W 122°20'0 0.3
2017-Oct-19 17:01N 37°49' W 122°20'0 0.1
2017-Oct-19 16:30N 37°49' W 122°20'0 0.0
2017-Oct-19 13:30N 37°49' W 122°20'0 0.0
2017-Oct-19 13:00N 37°49' W 122°20'0 0.0
2017-Oct-19 11:01N 37°49' W 122°20'0 0.0
2017-Oct-19 11:01N 37°49' W 122°20'0 0.0
2017-Oct-19 10:30N 37°49' W 122°20'0 0.1
2017-Oct-19 10:00N 37°49' W 122°20'0 0.1
2017-Oct-19 09:30N 37°49' W 122°20'0 0.0
2017-Oct-19 09:00N 37°49' W 122°20'0 0.0
2017-Oct-19 08:30N 37°49' W 122°20'0 0.0
2017-Oct-19 08:00N 37°49' W 122°20'0 0.0
2017-Oct-19 07:30N 37°49' W 122°20'0 0.0
2017-Oct-19 07:00N 37°49' W 122°20'0 0.0
2017-Oct-19 06:30N 37°49' W 122°20'0 0.0
2017-Oct-19 06:00N 37°49' W 122°20'0 0.0
2017-Oct-19 05:30N 37°49' W 122°20'0 0.1
2017-Oct-19 05:00N 37°49' W 122°20'1 1.4
2017-Oct-19 04:30N 37°49' W 122°19'1 1.6
2017-Oct-19 04:00N 37°49' W 122°20'0 0.1
2017-Oct-19 03:30N 37°49' W 122°20'0 0.0
2017-Oct-19 03:00N 37°49' W 122°20'0 0.1
2017-Oct-19 02:30N 37°49' W 122°20'0 0.2
2017-Oct-19 02:00N 37°49' W 122°20'0 0.0
2017-Oct-18 22:14N 37°49' W 122°20'0 0.3
2017-Oct-18 22:00N 37°49' W 122°20'1 1.9
2017-Oct-18 21:31N 37°49' W 122°19'1 1.1
2017-Oct-18 20:35N 37°49' W 122°20'0 0.1
2017-Oct-18 20:30N 37°49' W 122°20'0 0.1
2017-Oct-18 20:00N 37°49' W 122°20'0 0.0
2017-Oct-18 19:30N 37°49' W 122°20'0 0.0
2017-Oct-18 18:16N 37°49' W 122°20'0 0.0
2017-Oct-18 18:00N 37°49' W 122°20'0 0.0
2017-Oct-18 14:41N 37°49' W 122°20'0 0.0
2017-Oct-18 14:00N 37°49' W 122°20'0 0.0
2017-Oct-18 13:30N 37°49' W 122°20'0 0.0
2017-Oct-18 13:00N 37°49' W 122°20'1 2.6
2017-Oct-18 12:30N 37°49' W 122°18'1 2.7
2017-Oct-18 12:01N 37°49' W 122°20'0 0.0
2017-Oct-18 11:31N 37°49' W 122°20'0 0.0
2017-Oct-18 11:01N 37°49' W 122°20'0 0.0
2017-Oct-18 07:06N 37°49' W 122°20'0 0.5
2017-Oct-18 07:00N 37°49' W 122°20'0 0.1
2017-Oct-18 06:30N 37°49' W 122°20'0 0.0
2017-Oct-18 06:01N 37°49' W 122°20'1 1.3
2017-Oct-18 05:30N 37°49' W 122°19'1 0.2
2017-Oct-18 01:25N 37°49' W 122°20'1 1.7
2017-Oct-18 01:00N 37°49' W 122°19'1 1.4
2017-Oct-18 00:30N 37°49' W 122°20'0 0.1
2017-Oct-18 00:00N 37°49' W 122°20'0 0.0
2017-Oct-17 23:31N 37°49' W 122°20'0 0.0
2017-Oct-17 23:01N 37°49' W 122°20'0 0.0
2017-Oct-17 22:30N 37°49' W 122°20'0 0.0
2017-Oct-17 22:00N 37°49' W 122°20'1 1.1
2017-Oct-17 21:30N 37°49' W 122°19'1 0.8
2017-Oct-17 20:49N 37°49' W 122°20'0 0.0
2017-Oct-17 20:30N 37°49' W 122°20'0 0.0
2017-Oct-17 20:01N 37°49' W 122°20'0 0.1
2017-Oct-17 19:30N 37°49' W 122°20'1 1.0
2017-Oct-17 19:01N 37°49' W 122°19'0 0.1
2017-Oct-17 16:01N 37°49' W 122°20'0 0.0
2017-Oct-17 16:00N 37°49' W 122°20'1 1.3
2017-Oct-17 15:30N 37°48' W 122°21'1 0.8
2017-Oct-17 14:42N 37°49' W 122°20'0 0.3
2017-Oct-17 14:30N 37°49' W 122°20'0 0.2
2017-Oct-17 14:00N 37°49' W 122°20'0 0.1
2017-Oct-17 13:30N 37°49' W 122°20'1 1.5
2017-Oct-17 13:00N 37°49' W 122°19'1 0.3
2017-Oct-17 10:09N 37°49' W 122°20'0 0.3
2017-Oct-17 10:01N 37°49' W 122°20'0 0.6
2017-Oct-17 09:31N 37°49' W 122°20'0 0.2
2017-Oct-17 09:00N 37°49' W 122°20'0 0.1
2017-Oct-17 08:30N 37°49' W 122°20'0 0.1
2017-Oct-17 07:24N 37°49' W 122°20'0 0.0
2017-Oct-17 05:48N 37°49' W 122°20'1 2.9
2017-Oct-17 05:30N 37°49' W 122°19'1 0.8
2017-Oct-17 04:26N 37°49' W 122°20'0 0.0
2017-Oct-17 04:00N 37°49' W 122°20'0 0.0
2017-Oct-17 00:33N 37°49' W 122°20'0 0.0
2017-Oct-17 00:30N 37°49' W 122°20'0 0.3
2017-Oct-17 00:00N 37°49' W 122°20'0 0.3
2017-Oct-16 23:31N 37°49' W 122°20'0 0.1
2017-Oct-16 23:00N 37°49' W 122°20'0 0.0
2017-Oct-16 21:54N 37°49' W 122°20'0 0.4
2017-Oct-16 21:30N 37°49' W 122°19'0 0.2
2017-Oct-16 21:00N 37°49' W 122°20'0 0.0
2017-Oct-16 20:30N 37°49' W 122°20'0 0.0
2017-Oct-16 20:00N 37°49' W 122°20'1 1.7
2017-Oct-16 19:30N 37°49' W 122°19'0 0.1
2017-Oct-16 19:01N 37°49' W 122°19'0 0.3
2017-Oct-16 18:30N 37°49' W 122°19'0 0.7
2017-Oct-16 18:00N 37°49' W 122°19'1 0.9
2017-Oct-16 17:15N 37°49' W 122°20'0 0.7
2017-Oct-16 17:01N 37°49' W 122°20'0 0.0
2017-Oct-16 13:26N 37°49' W 122°20'0 0.1
2017-Oct-16 13:00N 37°49' W 122°20'0 0.1
2017-Oct-16 12:30N 37°49' W 122°20'0 0.1
2017-Oct-16 12:00N 37°49' W 122°20'0 0.1
2017-Oct-16 11:30N 37°49' W 122°20'0 0.1
2017-Oct-16 11:00N 37°49' W 122°19'0 0.2
2017-Oct-16 10:30N 37°49' W 122°20'0 0.1
2017-Oct-16 08:53N 37°49' W 122°19'0 0.1
2017-Oct-16 04:41N 37°49' W 122°19'0 2.5
2017-Oct-16 04:30N 37°49' W 122°19'1 1.5
2017-Oct-16 04:00N 37°49' W 122°19'0 0.0
2017-Oct-16 02:32N 37°49' W 122°19'0 0.0
2017-Oct-16 02:30N 37°49' W 122°19'0 0.0
2017-Oct-15 23:32N 37°49' W 122°19'0 0.3
2017-Oct-15 23:30N 37°49' W 122°19'0 0.0
2017-Oct-15 21:48N 37°49' W 122°20'1 2.6
2017-Oct-15 21:30N 37°49' W 122°19'1 0.9
2017-Oct-15 20:37N 37°49' W 122°20'0 0.2
2017-Oct-15 20:31N 37°49' W 122°20'0 0.0
2017-Oct-15 20:01N 37°49' W 122°20'0 0.1
2017-Oct-15 19:30N 37°49' W 122°20'0 0.0
2017-Oct-15 19:01N 37°49' W 122°20'0 0.1
2017-Oct-15 18:31N 37°49' W 122°19'0 0.0
2017-Oct-15 16:41N 37°49' W 122°19'0 0.0
2017-Oct-15 16:31N 37°49' W 122°19'0 0.0
2017-Oct-15 16:00N 37°49' W 122°19'0 0.0
2017-Oct-15 15:31N 37°49' W 122°19'0 0.0
2017-Oct-15 13:18N 37°49' W 122°19'1 2.5
2017-Oct-15 13:00N 37°49' W 122°19'1 1.5
2017-Oct-15 12:30N 37°49' W 122°19'0 0.0
2017-Oct-15 11:46N 37°49' W 122°19'0 0.0
2017-Oct-15 11:30N 37°49' W 122°19'0 0.3
2017-Oct-15 11:00N 37°49' W 122°20'0 0.1
2017-Oct-15 10:30N 37°49' W 122°20'0 0.1
2017-Oct-15 10:01N 37°49' W 122°20'0 0.1
2017-Oct-15 09:30N 37°49' W 122°20'0 0.0
2017-Oct-15 09:00N 37°49' W 122°20'0 0.8
2017-Oct-15 08:31N 37°49' W 122°19'0 0.4
2017-Oct-15 07:25N 37°49' W 122°20'0 0.1
2017-Oct-15 07:00N 37°49' W 122°20'0 0.0
2017-Oct-15 06:30N 37°49' W 122°20'0 0.4
2017-Oct-15 06:00N 37°49' W 122°19'0 0.6
2017-Oct-15 05:30N 37°49' W 122°19'0 0.7
2017-Oct-15 05:00N 37°49' W 122°19'0 0.0
2017-Oct-15 03:34N 37°49' W 122°19'0 0.0
2017-Oct-15 03:30N 37°49' W 122°19'0 0.0
2017-Oct-14 22:38N 37°49' W 122°19'0 0.0
2017-Oct-14 22:30N 37°49' W 122°19'0 0.0
2017-Oct-14 22:00N 37°49' W 122°19'1 1.7
2017-Oct-14 21:30N 37°49' W 122°19'1 0.6
2017-Oct-14 20:07N 37°49' W 122°20'0 0.3
2017-Oct-14 20:00N 37°49' W 122°20'0 0.0
2017-Oct-14 18:29N 37°49' W 122°20'0 0.0
2017-Oct-14 18:00N 37°49' W 122°20'0 0.1
2017-Oct-14 17:31N 37°49' W 122°20'0 0.1
2017-Oct-14 17:01N 37°49' W 122°20'0 0.0
2017-Oct-14 16:30N 37°49' W 122°20'0 0.0
2017-Oct-14 16:01N 37°49' W 122°20'0 0.6
2017-Oct-14 15:30N 37°49' W 122°20'0 0.5
2017-Oct-14 15:00N 37°49' W 122°20'0 0.5
2017-Oct-14 14:30N 37°49' W 122°20'0 0.2
2017-Oct-14 14:00N 37°49' W 122°20'0 0.0
2017-Oct-14 13:24N 37°49' W 122°20'0 1.0
2017-Oct-14 13:00N 37°49' W 122°20'0 0.8
2017-Oct-14 12:30N 37°49' W 122°20'0 0.7
2017-Oct-14 12:00N 37°49' W 122°20'0 0.2
2017-Oct-14 10:11N 37°49' W 122°20'0 0.6
2017-Oct-14 10:00N 37°49' W 122°20'0 0.2
2017-Oct-14 09:27N 37°49' W 122°20'0 0.6
2017-Oct-14 09:00N 37°49' W 122°20'0 0.6
2017-Oct-14 08:31N 37°49' W 122°20'0 0.0
2017-Oct-14 08:01N 37°49' W 122°20'0 0.0
2017-Oct-14 06:20N 37°49' W 122°20'0 0.2
2017-Oct-14 06:00N 37°49' W 122°20'0 0.1
2017-Oct-14 05:30N 37°49' W 122°20'1 2.6
2017-Oct-14 05:00N 37°49' W 122°18'1 0.9
2017-Oct-14 03:31N 37°49' W 122°20'0 0.0
2017-Oct-14 03:30N 37°49' W 122°20'0 0.0
2017-Oct-14 03:00N 37°49' W 122°20'0 0.1
2017-Oct-14 02:30N 37°49' W 122°20'0 0.0
2017-Oct-14 02:00N 37°49' W 122°20'0 0.0
2017-Oct-14 01:30N 37°49' W 122°20'0 0.3
2017-Oct-14 01:01N 37°49' W 122°20'0 0.6
2017-Oct-14 00:30N 37°49' W 122°20'0 0.2
2017-Oct-14 00:00N 37°49' W 122°20'0 0.1
2017-Oct-13 23:30N 37°49' W 122°20'1 1.3
2017-Oct-13 23:00N 37°48' W 122°21'0 0.1
2017-Oct-13 22:30N 37°48' W 122°21'0 0.2
2017-Oct-13 22:00N 37°48' W 122°20'0 0.1
2017-Oct-13 21:14N 37°48' W 122°21'0 0.5
2017-Oct-13 21:01N 37°48' W 122°20'0 0.1
2017-Oct-13 20:30N 37°48' W 122°20'0 0.1
2017-Oct-13 20:00N 37°48' W 122°20'0 0.2
2017-Oct-13 19:31N 37°48' W 122°21'0 0.0
2017-Oct-13 16:01N 37°48' W 122°20'0 0.0
2017-Oct-13 16:00N 37°48' W 122°20'0 0.1
2017-Oct-13 15:30N 37°48' W 122°20'0 0.3
2017-Oct-13 15:00N 37°48' W 122°21'0 0.2
2017-Oct-13 14:30N 37°48' W 122°20'0 0.1
2017-Oct-13 14:01N 37°48' W 122°20'0 0.6
2017-Oct-13 13:30N 37°49' W 122°20'0 0.1
2017-Oct-13 11:12N 37°48' W 122°20'0 0.3
2017-Oct-13 11:00N 37°48' W 122°20'0 0.0
2017-Oct-13 10:30N 37°48' W 122°20'0 0.1
2017-Oct-13 10:00N 37°48' W 122°20'1 1.2
2017-Oct-13 09:30N 37°49' W 122°20'0 0.1
2017-Oct-13 09:00N 37°49' W 122°20'0 0.1
2017-Oct-13 08:30N 37°49' W 122°20'0 0.0
2017-Oct-13 05:58N 37°49' W 122°20'0 0.3
2017-Oct-13 05:30N 37°49' W 122°20'1 2.0
2017-Oct-13 05:00N 37°49' W 122°18'1 1.1
2017-Oct-13 04:00N 37°49' W 122°20'0 0.2
2017-Oct-13 03:30N 37°49' W 122°20'0 0.2
2017-Oct-13 03:00N 37°49' W 122°20'1 1.9
2017-Oct-13 02:30N 37°49' W 122°19'1 0.3
2017-Oct-12 23:52N 37°49' W 122°20'0 0.1
2017-Oct-12 23:30N 37°49' W 122°20'0 0.1
2017-Oct-12 23:00N 37°49' W 122°20'0 0.0
2017-Oct-12 22:30N 37°49' W 122°20'0 0.5
2017-Oct-12 22:00N 37°49' W 122°20'1 1.2
2017-Oct-12 21:30N 37°48' W 122°21'0 0.0
2017-Oct-12 21:00N 37°48' W 122°21'0 0.0
2017-Oct-12 20:30N 37°48' W 122°21'0 0.1
2017-Oct-12 20:00N 37°48' W 122°21'0 0.0
2017-Oct-12 17:13N 37°48' W 122°20'0 0.6
2017-Oct-12 17:00N 37°48' W 122°21'0 0.2
2017-Oct-12 16:27N 37°48' W 122°21'0 0.1
2017-Oct-12 16:00N 37°48' W 122°21'0 0.1
2017-Oct-12 15:20N 37°48' W 122°21'0 0.5
2017-Oct-12 15:00N 37°48' W 122°21'0 0.1
2017-Oct-12 12:11N 37°48' W 122°20'0 0.0
2017-Oct-12 12:01N 37°48' W 122°20'0 0.0
2017-Oct-12 11:31N 37°48' W 122°20'0 0.0
2017-Oct-12 11:00N 37°48' W 122°20'0 0.0
2017-Oct-12 10:31N 37°48' W 122°20'0 0.0
2017-Oct-12 09:26N 37°48' W 122°20'1 2.9
2017-Oct-12 09:01N 37°49' W 122°19'1 0.5
2017-Oct-12 06:26N 37°48' W 122°20'0 0.0
2017-Oct-12 06:00N 37°48' W 122°20'0 0.0
2017-Oct-12 05:30N 37°48' W 122°20'0 0.0
2017-Oct-12 04:38N 37°48' W 122°20'0 0.0
2017-Oct-12 04:30N 37°48' W 122°20'0 0.0
2017-Oct-12 03:56N 37°48' W 122°20'0 0.2
2017-Oct-12 03:31N 37°48' W 122°20'0 0.4
2017-Oct-12 03:00N 37°48' W 122°21'0 0.3
2017-Oct-12 02:30N 37°48' W 122°20'2 3.4
2017-Oct-12 02:01N 37°49' W 122°19'2 1.8
2017-Oct-12 01:05N 37°48' W 122°20'0 0.0
2017-Oct-11 20:09N 37°48' W 122°20'0 2.0
2017-Oct-11 20:00N 37°49' W 122°20'  
Track history (hours):
 
Tides and Currents Weather Stations Pressure Air Temp Water Temp Dewpoint Dewpoint Depression Visibility Wind Speed Wind Dir Waves Ship Positions

Em1003

Owner: Dutra Group, San Rafael, CA. More information available from US FCC via Universal Licensing System and Coast Guard Vessel Documentation Center.

Last reported at 2017-Oct-21 19:53 UTC. Time now 2017-Oct-22 12:13 UTC.
Position N 37°49' W 122°18'.

; draft 7 m.

MMSI: 367748970.

Date/timePositionNaut miles runAvg speedWind from/ knotsBaromVisibWave heightAir tempDewpointWater temp
2017-Oct-21 19:53N 37°49' W 122°18'2 5.3
2017-Oct-21 19:30N 37°49' W 122°21'4 8.3
2017-Oct-21 19:00N 37°52' W 122°24'3 5.1
2017-Oct-21 18:30N 37°54' W 122°23'1 1.3
2017-Oct-21 18:00N 37°54' W 122°22'0 0.0
2017-Oct-21 17:30N 37°54' W 122°22'0 0.0
2017-Oct-21 17:00N 37°54' W 122°22'0 0.0
2017-Oct-21 16:30N 37°54' W 122°22'0 0.0
2017-Oct-21 16:00N 37°54' W 122°22'0 0.0
2017-Oct-21 15:30N 37°54' W 122°22'0 0.0
2017-Oct-21 15:00N 37°54' W 122°22'1 1.2
2017-Oct-21 14:30N 37°54' W 122°23'6 5.8
2017-Oct-21 13:30N 37°49' W 122°21'1 2.0
2017-Oct-21 13:00N 37°49' W 122°20'1 0.1
2017-Oct-20 17:30N 37°49' W 122°19'0 0.0
2017-Oct-20 17:00N 37°49' W 122°19'0 0.0
2017-Oct-20 16:30N 37°49' W 122°19'0 0.0
2017-Oct-20 14:08N 37°49' W 122°19'0 0.0
2017-Oct-20 12:49N 37°49' W 122°19'0 0.0
2017-Oct-20 09:28N 37°49' W 122°18'0 0.3
2017-Oct-20 09:00N 37°49' W 122°19'1 2.0
2017-Oct-20 08:30N 37°49' W 122°20'0 0.2
2017-Oct-20 08:01N 37°49' W 122°20'0 0.1
2017-Oct-20 07:30N 37°49' W 122°20'0 0.2
2017-Oct-20 07:01N 37°49' W 122°20'0 0.0
2017-Oct-20 06:30N 37°49' W 122°20'0 0.3
2017-Oct-20 06:00N 37°49' W 122°20'1 1.1
2017-Oct-20 05:30N 37°49' W 122°19'0 0.9
2017-Oct-20 05:00N 37°49' W 122°20'0 0.1
2017-Oct-20 04:02N 37°49' W 122°20'0 0.0
2017-Oct-20 04:00N 37°49' W 122°20'0 0.1
2017-Oct-20 03:30N 37°49' W 122°20'0 0.0
2017-Oct-20 03:00N 37°49' W 122°20'0 0.0
2017-Oct-20 02:30N 37°49' W 122°20'0 0.0
2017-Oct-20 02:00N 37°49' W 122°20'0 0.3
2017-Oct-20 01:30N 37°49' W 122°20'0 0.0
2017-Oct-20 01:00N 37°49' W 122°20'1 1.7
2017-Oct-20 00:30N 37°49' W 122°19'1 1.6
2017-Oct-20 00:00N 37°49' W 122°20'0 0.3
2017-Oct-19 23:30N 37°49' W 122°20'0 0.0
2017-Oct-19 22:02N 37°49' W 122°20'0 0.2
2017-Oct-19 22:00N 37°49' W 122°20'0 0.6
2017-Oct-19 21:30N 37°49' W 122°20'0 0.6
2017-Oct-19 21:01N 37°49' W 122°20'0 0.0
2017-Oct-19 19:49N 37°49' W 122°20'0 0.0
2017-Oct-19 19:30N 37°49' W 122°20'0 0.0
2017-Oct-19 17:36N 37°49' W 122°20'0 2.1
2017-Oct-19 17:30N 37°49' W 122°20'0 0.3
2017-Oct-19 17:01N 37°49' W 122°20'0 0.1
2017-Oct-19 16:30N 37°49' W 122°20'0 0.0
2017-Oct-19 13:30N 37°49' W 122°20'0 0.0
2017-Oct-19 13:00N 37°49' W 122°20'0 0.0
2017-Oct-19 11:01N 37°49' W 122°20'0 0.0
2017-Oct-19 11:01N 37°49' W 122°20'0 0.0
2017-Oct-19 10:30N 37°49' W 122°20'0 0.1
2017-Oct-19 10:00N 37°49' W 122°20'0 0.1
2017-Oct-19 09:30N 37°49' W 122°20'0 0.0
2017-Oct-19 09:00N 37°49' W 122°20'0 0.0
2017-Oct-19 08:30N 37°49' W 122°20'0 0.0
2017-Oct-19 08:00N 37°49' W 122°20'0 0.0
2017-Oct-19 07:30N 37°49' W 122°20'0 0.0
2017-Oct-19 07:00N 37°49' W 122°20'0 0.0
2017-Oct-19 06:30N 37°49' W 122°20'0 0.0
2017-Oct-19 06:00N 37°49' W 122°20'0 0.0
2017-Oct-19 05:30N 37°49' W 122°20'0 0.1
2017-Oct-19 05:00N 37°49' W 122°20'1 1.4
2017-Oct-19 04:30N 37°49' W 122°19'1 1.6
2017-Oct-19 04:00N 37°49' W 122°20'0 0.1
2017-Oct-19 03:30N 37°49' W 122°20'0 0.0
2017-Oct-19 03:00N 37°49' W 122°20'0 0.1
2017-Oct-19 02:30N 37°49' W 122°20'0 0.2
2017-Oct-19 02:00N 37°49' W 122°20'0 0.0
2017-Oct-18 22:14N 37°49' W 122°20'0 0.3
2017-Oct-18 22:00N 37°49' W 122°20'1 1.9
2017-Oct-18 21:31N 37°49' W 122°19'1 1.1
2017-Oct-18 20:35N 37°49' W 122°20'0 0.1
2017-Oct-18 20:30N 37°49' W 122°20'0 0.1
2017-Oct-18 20:00N 37°49' W 122°20'0 0.0
2017-Oct-18 19:30N 37°49' W 122°20'0 0.0
2017-Oct-18 18:16N 37°49' W 122°20'0 0.0
2017-Oct-18 18:00N 37°49' W 122°20'0 0.0
2017-Oct-18 14:41N 37°49' W 122°20'0 0.0
2017-Oct-18 14:00N 37°49' W 122°20'0 0.0
2017-Oct-18 13:30N 37°49' W 122°20'0 0.0
2017-Oct-18 13:00N 37°49' W 122°20'1 2.6
2017-Oct-18 12:30N 37°49' W 122°18'1 2.7
2017-Oct-18 12:01N 37°49' W 122°20'0 0.0
2017-Oct-18 11:31N 37°49' W 122°20'0 0.0
2017-Oct-18 11:01N 37°49' W 122°20'0 0.0
2017-Oct-18 07:06N 37°49' W 122°20'0 0.5
2017-Oct-18 07:00N 37°49' W 122°20'0 0.1
2017-Oct-18 06:30N 37°49' W 122°20'0 0.0
2017-Oct-18 06:01N 37°49' W 122°20'1 1.3
2017-Oct-18 05:30N 37°49' W 122°19'1 0.2
2017-Oct-18 01:25N 37°49' W 122°20'1 1.7
2017-Oct-18 01:00N 37°49' W 122°19'1 1.4
2017-Oct-18 00:30N 37°49' W 122°20'0 0.1
2017-Oct-18 00:00N 37°49' W 122°20'0 0.0
2017-Oct-17 23:31N 37°49' W 122°20'0 0.0
2017-Oct-17 23:01N 37°49' W 122°20'0 0.0
2017-Oct-17 22:30N 37°49' W 122°20'0 0.0
2017-Oct-17 22:00N 37°49' W 122°20'1 1.1
2017-Oct-17 21:30N 37°49' W 122°19'1 0.8
2017-Oct-17 20:49N 37°49' W 122°20'0 0.0
2017-Oct-17 20:30N 37°49' W 122°20'0 0.0
2017-Oct-17 20:01N 37°49' W 122°20'0 0.1
2017-Oct-17 19:30N 37°49' W 122°20'1 1.0
2017-Oct-17 19:01N 37°49' W 122°19'0 0.1
2017-Oct-17 16:01N 37°49' W 122°20'0 0.0
2017-Oct-17 16:00N 37°49' W 122°20'1 1.3
2017-Oct-17 15:30N 37°48' W 122°21'1 0.8
2017-Oct-17 14:42N 37°49' W 122°20'0 0.3
2017-Oct-17 14:30N 37°49' W 122°20'0 0.2
2017-Oct-17 14:00N 37°49' W 122°20'0 0.1
2017-Oct-17 13:30N 37°49' W 122°20'1 1.5
2017-Oct-17 13:00N 37°49' W 122°19'1 0.3
2017-Oct-17 10:09N 37°49' W 122°20'0 0.3
2017-Oct-17 10:01N 37°49' W 122°20'0 0.6
2017-Oct-17 09:31N 37°49' W 122°20'0 0.2
2017-Oct-17 09:00N 37°49' W 122°20'0 0.1
2017-Oct-17 08:30N 37°49' W 122°20'0 0.1
2017-Oct-17 07:24N 37°49' W 122°20'0 0.0
2017-Oct-17 05:48N 37°49' W 122°20'1 2.9
2017-Oct-17 05:30N 37°49' W 122°19'1 0.8
2017-Oct-17 04:26N 37°49' W 122°20'0 0.0
2017-Oct-17 04:00N 37°49' W 122°20'0 0.0
2017-Oct-17 00:33N 37°49' W 122°20'0 0.0
2017-Oct-17 00:30N 37°49' W 122°20'0 0.3
2017-Oct-17 00:00N 37°49' W 122°20'0 0.3
2017-Oct-16 23:31N 37°49' W 122°20'0 0.1
2017-Oct-16 23:00N 37°49' W 122°20'0 0.0
2017-Oct-16 21:54N 37°49' W 122°20'0 0.4
2017-Oct-16 21:30N 37°49' W 122°19'0 0.2
2017-Oct-16 21:00N 37°49' W 122°20'0 0.0
2017-Oct-16 20:30N 37°49' W 122°20'0 0.0
2017-Oct-16 20:00N 37°49' W 122°20'1 1.7
2017-Oct-16 19:30N 37°49' W 122°19'0 0.1
2017-Oct-16 19:01N 37°49' W 122°19'0 0.3
2017-Oct-16 18:30N 37°49' W 122°19'0 0.7
2017-Oct-16 18:00N 37°49' W 122°19'1 0.9
2017-Oct-16 17:15N 37°49' W 122°20'0 0.7
2017-Oct-16 17:01N 37°49' W 122°20'0 0.0
2017-Oct-16 13:26N 37°49' W 122°20'0 0.1
2017-Oct-16 13:00N 37°49' W 122°20'0 0.1
2017-Oct-16 12:30N 37°49' W 122°20'0 0.1
2017-Oct-16 12:00N 37°49' W 122°20'0 0.1
2017-Oct-16 11:30N 37°49' W 122°20'0 0.1
2017-Oct-16 11:00N 37°49' W 122°19'0 0.2
2017-Oct-16 10:30N 37°49' W 122°20'0 0.1
2017-Oct-16 08:53N 37°49' W 122°19'0 0.1
2017-Oct-16 04:41N 37°49' W 122°19'0 2.5
2017-Oct-16 04:30N 37°49' W 122°19'1 1.5
2017-Oct-16 04:00N 37°49' W 122°19'0 0.0
2017-Oct-16 02:32N 37°49' W 122°19'0 0.0
2017-Oct-16 02:30N 37°49' W 122°19'0 0.0
2017-Oct-15 23:32N 37°49' W 122°19'0 0.3
2017-Oct-15 23:30N 37°49' W 122°19'0 0.0
2017-Oct-15 21:48N 37°49' W 122°20'1 2.6
2017-Oct-15 21:30N 37°49' W 122°19'1 0.9
2017-Oct-15 20:37N 37°49' W 122°20'0 0.2
2017-Oct-15 20:31N 37°49' W 122°20'0 0.0
2017-Oct-15 20:01N 37°49' W 122°20'0 0.1
2017-Oct-15 19:30N 37°49' W 122°20'0 0.0
2017-Oct-15 19:01N 37°49' W 122°20'0 0.1
2017-Oct-15 18:31N 37°49' W 122°19'0 0.0
2017-Oct-15 16:41N 37°49' W 122°19'0 0.0
2017-Oct-15 16:31N 37°49' W 122°19'0 0.0
2017-Oct-15 16:00N 37°49' W 122°19'0 0.0
2017-Oct-15 15:31N 37°49' W 122°19'0 0.0
2017-Oct-15 13:18N 37°49' W 122°19'1 2.5
2017-Oct-15 13:00N 37°49' W 122°19'1 1.5
2017-Oct-15 12:30N 37°49' W 122°19'0 0.0
2017-Oct-15 11:46N 37°49' W 122°19'0 0.0
2017-Oct-15 11:30N 37°49' W 122°19'0 0.3
2017-Oct-15 11:00N 37°49' W 122°20'0 0.1
2017-Oct-15 10:30N 37°49' W 122°20'0 0.1
2017-Oct-15 10:01N 37°49' W 122°20'0 0.1
2017-Oct-15 09:30N 37°49' W 122°20'0 0.0
2017-Oct-15 09:00N 37°49' W 122°20'0 0.8
2017-Oct-15 08:31N 37°49' W 122°19'0 0.4
2017-Oct-15 07:25N 37°49' W 122°20'0 0.1
2017-Oct-15 07:00N 37°49' W 122°20'0 0.0
2017-Oct-15 06:30N 37°49' W 122°20'0 0.4
2017-Oct-15 06:00N 37°49' W 122°19'0 0.6
2017-Oct-15 05:30N 37°49' W 122°19'0 0.7
2017-Oct-15 05:00N 37°49' W 122°19'0 0.0
2017-Oct-15 03:34N 37°49' W 122°19'0 0.0
2017-Oct-15 03:30N 37°49' W 122°19'0 0.0
2017-Oct-14 22:38N 37°49' W 122°19'0 0.0
2017-Oct-14 22:30N 37°49' W 122°19'0 0.0
2017-Oct-14 22:00N 37°49' W 122°19'1 1.7
2017-Oct-14 21:30N 37°49' W 122°19'1 0.6
2017-Oct-14 20:07N 37°49' W 122°20'0 0.3
2017-Oct-14 20:00N 37°49' W 122°20'0 0.0
2017-Oct-14 18:29N 37°49' W 122°20'0 0.0
2017-Oct-14 18:00N 37°49' W 122°20'0 0.1
2017-Oct-14 17:31N 37°49' W 122°20'0 0.1
2017-Oct-14 17:01N 37°49' W 122°20'0 0.0
2017-Oct-14 16:30N 37°49' W 122°20'0 0.0
2017-Oct-14 16:01N 37°49' W 122°20'0 0.6
2017-Oct-14 15:30N 37°49' W 122°20'0 0.5
2017-Oct-14 15:00N 37°49' W 122°20'0 0.5
2017-Oct-14 14:30N 37°49' W 122°20'0 0.2
2017-Oct-14 14:00N 37°49' W 122°20'0 0.0
2017-Oct-14 13:24N 37°49' W 122°20'0 1.0
2017-Oct-14 13:00N 37°49' W 122°20'0 0.8
2017-Oct-14 12:30N 37°49' W 122°20'0 0.7
2017-Oct-14 12:00N 37°49' W 122°20'0 0.2
2017-Oct-14 10:11N 37°49' W 122°20'0 0.6
2017-Oct-14 10:00N 37°49' W 122°20'0 0.2
2017-Oct-14 09:27N 37°49' W 122°20'0 0.6
2017-Oct-14 09:00N 37°49' W 122°20'0 0.6
2017-Oct-14 08:31N 37°49' W 122°20'0 0.0
2017-Oct-14 08:01N 37°49' W 122°20'0 0.0
2017-Oct-14 06:20N 37°49' W 122°20'0 0.2
2017-Oct-14 06:00N 37°49' W 122°20'0 0.1
2017-Oct-14 05:30N 37°49' W 122°20'1 2.6
2017-Oct-14 05:00N 37°49' W 122°18'1 0.9
2017-Oct-14 03:31N 37°49' W 122°20'0 0.0
2017-Oct-14 03:30N 37°49' W 122°20'0 0.0
2017-Oct-14 03:00N 37°49' W 122°20'0 0.1
2017-Oct-14 02:30N 37°49' W 122°20'0 0.0
2017-Oct-14 02:00N 37°49' W 122°20'0 0.0
2017-Oct-14 01:30N 37°49' W 122°20'0 0.3
2017-Oct-14 01:01N 37°49' W 122°20'0 0.6
2017-Oct-14 00:30N 37°49' W 122°20'0 0.2
2017-Oct-14 00:00N 37°49' W 122°20'0 0.1
2017-Oct-13 23:30N 37°49' W 122°20'1 1.3
2017-Oct-13 23:00N 37°48' W 122°21'0 0.1
2017-Oct-13 22:30N 37°48' W 122°21'0 0.2
2017-Oct-13 22:00N 37°48' W 122°20'0 0.1
2017-Oct-13 21:14N 37°48' W 122°21'0 0.5
2017-Oct-13 21:01N 37°48' W 122°20'0 0.1
2017-Oct-13 20:30N 37°48' W 122°20'0 0.1
2017-Oct-13 20:00N 37°48' W 122°20'0 0.2
2017-Oct-13 19:31N 37°48' W 122°21'0 0.0
2017-Oct-13 16:01N 37°48' W 122°20'0 0.0
2017-Oct-13 16:00N 37°48' W 122°20'0 0.1
2017-Oct-13 15:30N 37°48' W 122°20'0 0.3
2017-Oct-13 15:00N 37°48' W 122°21'0 0.2
2017-Oct-13 14:30N 37°48' W 122°20'0 0.1
2017-Oct-13 14:01N 37°48' W 122°20'0 0.6
2017-Oct-13 13:30N 37°49' W 122°20'0 0.1
2017-Oct-13 11:12N 37°48' W 122°20'0 0.3
2017-Oct-13 11:00N 37°48' W 122°20'0 0.0
2017-Oct-13 10:30N 37°48' W 122°20'0 0.1
2017-Oct-13 10:00N 37°48' W 122°20'1 1.2
2017-Oct-13 09:30N 37°49' W 122°20'0 0.1
2017-Oct-13 09:00N 37°49' W 122°20'0 0.1
2017-Oct-13 08:30N 37°49' W 122°20'0 0.0
2017-Oct-13 05:58N 37°49' W 122°20'0 0.3
2017-Oct-13 05:30N 37°49' W 122°20'1 2.0
2017-Oct-13 05:00N 37°49' W 122°18'1 1.1
2017-Oct-13 04:00N 37°49' W 122°20'0 0.2
2017-Oct-13 03:30N 37°49' W 122°20'0 0.2
2017-Oct-13 03:00N 37°49' W 122°20'1 1.9
2017-Oct-13 02:30N 37°49' W 122°19'1 0.3
2017-Oct-12 23:52N 37°49' W 122°20'0 0.1
2017-Oct-12 23:30N 37°49' W 122°20'0 0.1
2017-Oct-12 23:00N 37°49' W 122°20'0 0.0
2017-Oct-12 22:30N 37°49' W 122°20'0 0.5
2017-Oct-12 22:00N 37°49' W 122°20'1 1.2
2017-Oct-12 21:30N 37°48' W 122°21'0 0.0
2017-Oct-12 21:00N 37°48' W 122°21'0 0.0
2017-Oct-12 20:30N 37°48' W 122°21'0 0.1
2017-Oct-12 20:00N 37°48' W 122°21'0 0.0
2017-Oct-12 17:13N 37°48' W 122°20'0 0.6
2017-Oct-12 17:00N 37°48' W 122°21'0 0.2
2017-Oct-12 16:27N 37°48' W 122°21'0 0.1
2017-Oct-12 16:00N 37°48' W 122°21'0 0.1
2017-Oct-12 15:20N 37°48' W 122°21'0 0.5
2017-Oct-12 15:00N 37°48' W 122°21'0 0.1
2017-Oct-12 12:11N 37°48' W 122°20'0 0.0
2017-Oct-12 12:01N 37°48' W 122°20'0 0.0
2017-Oct-12 11:31N 37°48' W 122°20'0 0.0
2017-Oct-12 11:00N 37°48' W 122°20'0 0.0
2017-Oct-12 10:31N 37°48' W 122°20'0 0.0
2017-Oct-12 09:26N 37°48' W 122°20'1 2.9
2017-Oct-12 09:01N 37°49' W 122°19'1 0.5
2017-Oct-12 06:26N 37°48' W 122°20'0 0.0
2017-Oct-12 06:00N 37°48' W 122°20'0 0.0
2017-Oct-12 05:30N 37°48' W 122°20'0 0.0
2017-Oct-12 04:38N 37°48' W 122°20'0 0.0
2017-Oct-12 04:30N 37°48' W 122°20'0 0.0
2017-Oct-12 03:56N 37°48' W 122°20'0 0.2
2017-Oct-12 03:31N 37°48' W 122°20'0 0.4
2017-Oct-12 03:00N 37°48' W 122°21'0 0.3
2017-Oct-12 02:30N 37°48' W 122°20'2 3.4
2017-Oct-12 02:01N 37°49' W 122°19'2 1.8
2017-Oct-12 01:05N 37°48' W 122°20'0 0.0
2017-Oct-11 20:09N 37°48' W 122°20'0 2.0
2017-Oct-11 20:00N 37°49' W 122°20'  

Dump ship's entire track history